Logo AVAMET
Benvolgut visitant, si us plau, ingressa Recuperar contrasenya
AVAMET paisatges

Inforatge la Font de la Figuera bodega

Dades diàries. Acumulats / Últims 30 dies disponibles

Data Temperatura (°C) Humitat rel. (%) Pressió rel. (hPa) Vent (km/h) Precipitació
Mínima Mitjana Màxima Amplitud
tèrmica
Mínima Mitjana Màxima Mínima Mitjana Màxima Predom. Mitjana Ràfega
màxima
Total
(mm)
Índex-n
Mínima Mitjana Màxima Mínima Mitjana Màxima n
0 a 1
P0 max
mm 5'
Dades mensuals acumulades fins l'últim dia disponible
05/2020 9,6 12,9 16,1 19,0 16,8 25,7 32,0 22,4 24 67 94 1.007 1.021 1.033   4,8 59,5 39,8
Dades anuals acumulades fins l'últim dia disponible
2020 -0,2 8,3 16,1 12,9 4,3 18,6 32,0 32,2 0 73 96 1.007 1.024 1.038   4,8 78,9 360,6
Últims 30 dies disponibles
31-05-2020 10,7     19,8     28,8 18,1 29 52 84 1.016 1.018 1.020 SSE 6,3 30,6 0,0
30-05-2020 11,6     20,1     27,6 16,0 28 56 87 1.018 1.020 1.021 S 6,0 32,2 0,0
29-05-2020 11,0     20,3     28,4 17,4 33 58 88 1.018 1.021 1.026 S 4,5 20,9 0,0
28-05-2020 14,7     18,8     24,2 9,5 48 73 93 1.025 1.028 1.031 ENE 5,0 29,0 0,0
27-05-2020 11,6     18,4     24,9 13,3 42 71 92 1.029 1.029 1.031 ENE 5,3 37,0 0,0
26-05-2020 14,1     18,3     24,0 9,9 55 76 93 1.028 1.030 1.031 ENE 3,9 32,2 1,2
25-05-2020 13,4     17,4     22,1 8,7 53 79 92 1.028 1.030 1.031 ENE 2,6 20,9 0,4
24-05-2020 15,4     19,3     24,5 9,1 64 81 93 1.030 1.031 1.033 ENE 4,8 27,4 0,0
23-05-2020 14,6     23,2     32,0 17,4 30 54 84 1.027 1.029 1.031 SSE 5,0 22,5 0,0
22-05-2020 16,1     24,2     31,8 15,7 39 54 77 1.025 1.027 1.030 ENE 4,7 22,5 0,0
21-05-2020 13,3     22,7     31,3 18,0 28 59 89 1.022 1.024 1.026 S 5,0 30,6 0,0
20-05-2020 13,3     22,6     31,8 18,5 24 59 84 1.019 1.020 1.022 SSW 3,4 22,5 0,0
19-05-2020 12,4     21,2     29,6 17,2 28 59 88 1.020 1.022 1.025 NW 5,3 24,1 0,0
18-05-2020 11,1     19,3     27,6 16,5 29 63 91 1.022 1.025 1.026 NW 3,2 29,0 0,0
17-05-2020 12,1     15,5     21,6 9,5 58 81 93 1.023 1.024 1.027 S 4,0 27,4 0,0
16-05-2020 11,4     13,9     18,1 6,7 75 88 94 1.018 1.020 1.023 ENE 2,6 22,5 6,0 0,68 0,80
15-05-2020 9,6     12,9     16,8 7,2 66 83 94 1.014 1.016 1.019 ENE 1,8 20,9 3,8 0,40 0,50
14-05-2020 9,7     13,4     17,4 7,7 58 76 91 1.007 1.010 1.014 S 6,1 32,2 16,4 0,29 0,50
13-05-2020 9,6     15,6     22,2 12,6 46 68 87 1.008 1.010 1.012 NW 5,6 29,0 0,6
12-05-2020 12,6     15,6     21,5 8,9 56 77 90 1.010 1.013 1.017 ENE 3,1 25,7 4,0 0,12 0,60
11-05-2020 13,7     17,8     23,6 9,9 43 61 76 1.012 1.013 1.016 SSW 7,9 53,1 0,0
10-05-2020 12,2     16,1     20,5 8,3 44 69 89 1.009 1.011 1.013 S 7,9 51,5 7,4 0,42 2,40
09-05-2020 14,0     18,9     25,8 11,8 56 78 91 1.013 1.016 1.020 ENE 3,7 22,5 0,0
08-05-2020 14,0     17,4     22,1 8,1 63 80 92 1.018 1.020 1.023 ENE 5,3 33,8 0,0
07-05-2020 13,0     18,2     23,3 10,3 51 73 91 1.021 1.022 1.023 ENE 3,2 32,2 0,0
06-05-2020 14,3     20,5     27,2 12,9 43 69 88 1.019 1.021 1.023 ENE 3,9 29,0 0,0
05-05-2020 15,2     21,8     31,0 15,8 33 59 86 1.017 1.019 1.020 S 3,5 20,9 0,0
04-05-2020 11,9     20,7     29,9 18,0 27 61 89 1.018 1.020 1.022 S 6,3 33,8 0,0
03-05-2020 13,7     21,8     29,9 16,2 28 59 80 1.021 1.023 1.024 SSW 4,0 22,5 0,0
02-05-2020 15,8     22,3     29,6 13,8 28 55 80 1.022 1.024 1.026 NW 6,4 33,8 0,0
Últims 13 mesos disponibles
04/2020 5,2 9,6 13,6 13,5 13,3 18,5 22,8 17,6 57 78 93 1.010 1.019 1.029 ENE 3,9 41,8 86,4
03/2020 3,6 7,9 13,3 11,5 6,4 16,0 28,9 25,3 48 70 93 1.012 1.020 1.028 NW 5,7 78,9 106,2
02/2020 1,8 7,2 12,1 12,7 10,7 19,3 23,9 22,1 43 69 92 1.018 1.029 1.036 S 4,8 48,3 3,0
01/2020 -0,2 3,8 10,9 8,0 4,3 13,5 17,8 18,0 62 78 96 1.018 1.028 1.035 SSW 4,8 64,4 125,2
12/2019 0,7 7,0 13,4 10,6 8,4 15,0 22,1 21,4 52 75 95 1.008 1.022 1.035 NW 6,0 62,8 46,8
11/2019 1,8 8,6 17,4 11,9 10,7 15,4 23,6 21,8 54 66 86 1.004 1.015 1.023 NW 8,3 59,5 17,0
10/2019 7,1 12,9 17,2 17,8 13,1 23,8 30,2 23,1 39 68 85 1.011 1.021 1.026 S 4,4 41,8 30,8
09/2019 12,2 16,8 21,2 21,3 18,6 27,0 34,6 22,4 0 66 93 0 920 1.028 SSE 4,8 57,9 265,2
08/2019 14,4 18,7 23,1 25,4 25,9 33,0 39,6 25,2 35 60 79 1.016 1.021 1.024 SE 4,9 58,0 10,0
07/2019 16,3 19,1 23,2 25,9 26,3 33,2 39,1 22,8 37 57 80 1.012 1.019 1.026 SE 5,7 45,0 6,2
06/2019 9,5 14,8 19,2 21,9 20,9 29,0 38,6 29,1 35 54 77 1.014 1.020 1.026 SSE 5,8 51,9 2,6
05/2019 6,8 11,3 17,6 17,6 19,4 24,7 29,9 23,1 46 61 78 1.010 1.019 1.028 S 5,6 53,7 6,6
04/2019 5,5 8,5 12,2 12,8 9,1 17,9 25,7 20,2 43 69 98 1.003 1.016 1.028 SSO 6,8 70,9 143,4
Tots els anys disponibles
2019 -4,7 10,9 23,2 16,3 8,4 22,5 39,6 44,3 0 63 98 0 1.012 1.035 S 5,7 70,9 551,0
Temperatura (°C)
Humitat relativa (%)
Velocitat del vent i ràfega màxima (km/h)
Direcció del vent (°)
Pressió (hPa)
Precipitació (mm)
Nota sobre les dades: s'avisa a l'usuari de la provisionalitat i no oficialitat d'aquestes dades
Logo AVAMET blanc
Web allotjada a Sollutia
Llicència de Creative CommonsLa web d'AVAMET i els seus continguts estan subjectes a una llicència de
Reconeixement - No Comercial - Compartir igual
Últimes estacions: Xodos - la Vega (Soci), la Vall d'Alba - Centre (Ajuntament soci), Chera (Ajuntament soci) - - -